createdAt,value
2023-12-13T00:00:05.351Z,8.6
2023-12-13T00:10:05.545Z,8.6
2023-12-13T00:20:05.803Z,8.5
2023-12-13T00:30:05.963Z,8.4
2023-12-13T00:40:06.182Z,8.5
2023-12-13T00:50:06.368Z,8.6
2023-12-13T01:00:06.555Z,8.6
2023-12-13T01:10:06.803Z,8.6
2023-12-13T01:20:06.988Z,8.6
2023-12-13T01:30:07.163Z,8.6
2023-12-13T01:40:07.368Z,8.6
2023-12-13T01:50:07.636Z,8.4
2023-12-13T02:10:08.162Z,8.3
2023-12-13T02:20:08.189Z,8.3
2023-12-13T02:30:08.454Z,8.2
2023-12-13T02:40:08.580Z,8.1
2023-12-13T02:50:08.775Z,8
2023-12-13T03:00:08.960Z,8
2023-12-13T03:10:09.200Z,7.9
2023-12-13T03:20:09.375Z,7.9
2023-12-13T03:40:09.768Z,8
2023-12-13T03:50:10.044Z,8
2023-12-13T04:00:10.176Z,8
2023-12-13T04:10:10.511Z,8
2023-12-13T04:20:10.570Z,8.1
2023-12-13T04:30:10.786Z,8.1
2023-12-13T04:40:10.972Z,8.1
2023-12-13T04:50:11.223Z,8.2
2023-12-13T05:00:11.384Z,8.3
2023-12-13T05:10:11.596Z,8.3
2023-12-13T05:20:11.837Z,8.4
2023-12-13T05:30:11.990Z,8.4
2023-12-13T05:40:12.158Z,8.4
2023-12-13T05:50:12.446Z,8.4
2023-12-13T06:00:12.578Z,8.4
2023-12-13T06:10:12.814Z,8.4
2023-12-13T06:20:12.967Z,8.4
2023-12-13T06:30:13.211Z,8.4
2023-12-13T06:40:13.398Z,8.5
2023-12-13T06:50:13.654Z,8.4
2023-12-13T07:00:13.763Z,8.4
2023-12-13T07:10:14.008Z,8.4
2023-12-13T07:20:14.296Z,8.4
2023-12-13T07:30:14.393Z,8.4
2023-12-13T07:40:14.613Z,8.4
2023-12-13T07:50:14.854Z,8.5
2023-12-13T08:00:14.973Z,8.5
2023-12-13T08:10:15.183Z,8.5
2023-12-13T08:20:15.371Z,8.6
2023-12-13T08:30:15.584Z,8.6
2023-12-13T08:40:15.832Z,8.6
2023-12-13T09:00:16.171Z,8.6
2023-12-13T09:20:16.645Z,8.7
2023-12-13T09:30:18.280Z,8.8
2023-12-13T09:40:17.059Z,8.8
2023-12-13T09:50:17.210Z,8.8
2023-12-13T10:00:17.363Z,8.8
2023-12-13T10:10:17.669Z,8.9
2023-12-13T10:20:17.766Z,9
2023-12-13T10:30:17.978Z,9
2023-12-13T10:40:18.220Z,9.1
2023-12-13T10:50:18.363Z,9.1
2023-12-13T11:00:18.554Z,9.2
2023-12-13T11:10:18.799Z,9.2
2023-12-13T11:20:20.383Z,9.1
2023-12-13T11:30:19.244Z,9
2023-12-13T11:40:19.395Z,8.9
2023-12-13T11:50:19.561Z,8.7
2023-12-13T12:00:19.798Z,8.7
2023-12-13T12:20:20.218Z,8.7
2023-12-13T12:40:20.640Z,8.6
2023-12-13T12:50:20.767Z,8.5
2023-12-13T13:10:21.170Z,8.2
2023-12-13T13:20:21.367Z,8
2023-12-13T13:30:21.642Z,8
2023-12-13T13:40:21.793Z,8
2023-12-13T13:50:22.054Z,8
2023-12-13T14:00:22.210Z,8
2023-12-13T14:10:22.426Z,8
2023-12-13T14:20:22.559Z,8
2023-12-13T14:40:23.056Z,8
2023-12-13T14:50:23.192Z,8
2023-12-13T15:00:23.402Z,8
2023-12-13T15:10:23.644Z,8
2023-12-13T15:20:23.822Z,7.9
2023-12-13T15:30:24.068Z,7.9
2023-12-13T15:40:24.182Z,7.8
2023-12-13T15:50:24.411Z,7.9
2023-12-13T16:00:24.565Z,7.9
2023-12-13T16:10:24.847Z,7.9
2023-12-13T16:20:25.003Z,7.9
2023-12-13T16:30:25.210Z,7.9
2023-12-13T16:40:25.396Z,7.9
2023-12-13T16:50:25.585Z,7.9
2023-12-13T17:00:25.789Z,7.9
2023-12-13T17:10:26.057Z,7.8
2023-12-13T17:20:26.187Z,7.9
2023-12-13T17:30:26.421Z,7.8
2023-12-13T17:40:26.611Z,7.8
2023-12-13T18:00:26.978Z,7.8
2023-12-13T18:10:27.202Z,7.8
2023-12-13T18:20:27.393Z,7.9
2023-12-13T18:30:27.619Z,7.9
2023-12-13T18:40:27.797Z,7.8
2023-12-13T18:50:28.002Z,7.8
2023-12-13T19:00:28.211Z,7.8
2023-12-13T19:10:28.436Z,7.8
2023-12-13T19:20:28.583Z,7.9
2023-12-13T19:30:28.822Z,7.9
2023-12-13T19:40:29.019Z,7.8
2023-12-13T19:50:29.193Z,7.8
2023-12-13T20:00:29.419Z,7.7
2023-12-13T20:10:29.613Z,7.7
2023-12-13T20:20:29.797Z,7.7
2023-12-13T20:30:30.016Z,7.7
2023-12-13T20:40:30.207Z,7.6
2023-12-13T20:50:30.410Z,7.6
2023-12-13T21:00:30.618Z,7.6
2023-12-13T21:10:30.819Z,7.7
2023-12-13T21:20:30.994Z,7.7
2023-12-13T21:30:31.228Z,7.7
2023-12-13T21:40:31.399Z,7.7
2023-12-13T22:00:31.825Z,7.8
2023-12-13T22:10:32.024Z,7.8
2023-12-13T22:20:32.254Z,7.7
2023-12-13T22:30:32.425Z,7.6
2023-12-13T22:40:32.605Z,7.4
2023-12-13T22:50:32.923Z,7.2
2023-12-13T23:00:33.020Z,7.1
2023-12-13T23:10:33.217Z,7.1
2023-12-13T23:20:33.405Z,7
2023-12-13T23:30:33.650Z,6.9
2023-12-13T23:40:33.824Z,6.9
2023-12-13T23:50:33.995Z,6.8
